Time;durP1;ratioP1;P1;durP2;ratioP2;P2;SDS_P1;SDS_P2;PMS_P1;PMS_P2;Temp;Humidity;BMP_temperature;BMP_pressure;BME280_temperature;BME280_humidity;BME280_pressure;Samples;Min_cycle;Max_cycle;Signal;HPM_P1;HPM_P2
2023/06/05 00:00:48;;;;;;;12.95;6.50;;;;;;;;;;4985410;28;20038;-59
2023/06/05 00:03:14;;;;;;;11.48;6.05;;;;;;;;;;5027633;28;20029;-59
2023/06/05 00:05:40;;;;;;;10.90;6.30;;;;;;;;;;5023443;28;20060;-59
2023/06/05 00:08:06;;;;;;;12.07;6.60;;;;;;;;;;5012024;28;20434;-59
2023/06/05 00:10:33;;;;;;;12.13;6.15;;;;;;;;;;5026401;28;20394;-59
2023/06/05 00:12:59;;;;;;;13.07;6.82;;;;;;;;;;5024818;28;20030;-59
2023/06/05 00:15:25;;;;;;;19.08;6.70;;;;;;;;;;5023014;28;20064;-59
2023/06/05 00:17:51;;;;;;;10.57;6.25;;;;;;;;;;5016451;28;20399;-59
2023/06/05 00:20:18;;;;;;;11.18;6.35;;;;;;;;;;5017685;28;20054;-59
2023/06/05 00:22:44;;;;;;;12.98;6.35;;;;;;;;;;5020266;28;20541;-59
2023/06/05 00:25:10;;;;;;;11.88;6.90;;;;;;;;;;5011848;28;20056;-59
2023/06/05 00:27:36;;;;;;;13.05;6.68;;;;;;;;;;5015806;28;20061;-59
2023/06/05 00:30:03;;;;;;;13.13;6.93;;;;;;;;;;5015448;28;20041;-59
2023/06/05 00:32:29;;;;;;;14.02;7.13;;;;;;;;;;5007011;28;20474;-59
2023/06/05 00:34:55;;;;;;;12.32;6.28;;;;;;;;;;5012614;28;20046;-59
2023/06/05 00:37:21;;;;;;;11.57;6.60;;;;;;;;;;5020553;28;20057;-59
2023/06/05 00:39:47;;;;;;;11.32;6.35;;;;;;;;;;4993624;28;20041;-58
2023/06/05 00:42:14;;;;;;;13.45;6.43;;;;;;;;;;5014586;28;20030;-60
2023/06/05 00:44:40;;;;;;;11.75;6.18;;;;;;;;;;5022079;28;20068;-59
2023/06/05 00:47:06;;;;;;;11.02;6.32;;;;;;;;;;5008043;28;20502;-59
2023/06/05 00:49:33;;;;;;;12.13;6.32;;;;;;;;;;5029191;28;20036;-59
2023/06/05 00:51:59;;;;;;;12.55;6.40;;;;;;;;;;5001589;28;20050;-59
2023/06/05 00:54:26;;;;;;;12.23;6.80;;;;;;;;;;5006024;28;20038;-61
2023/06/05 00:56:54;;;;;;;10.55;5.88;;;;;;;;;;4992224;28;20049;-60
2023/06/05 00:59:21;;;;;;;11.35;6.20;;;;;;;;;;5000458;28;20038;-58
2023/06/05 01:01:48;;;;;;;13.82;6.93;;;;;;;;;;5000628;28;20081;-59
2023/06/05 01:04:14;;;;;;;12.88;6.85;;;;;;;;;;5007339;28;20044;-59
2023/06/05 01:06:41;;;;;;;10.10;6.22;;;;;;;;;;5016985;28;20049;-58
2023/06/05 01:09:10;;;;;;;11.23;6.85;;;;;;;;;;5019251;28;20063;-58
2023/06/05 01:11:39;;;;;;;15.30;6.82;;;;;;;;;;4999647;28;20046;-60
2023/06/05 01:14:16;;;;;;;12.70;6.68;;;;;;;;;;5004428;28;20522;-61
2023/06/05 01:16:47;;;;;;;13.90;7.00;;;;;;;;;;5022025;28;20037;-59
2023/06/05 01:19:14;;;;;;;13.63;7.03;;;;;;;;;;5013867;28;20061;-58
2023/06/05 01:21:41;;;;;;;14.82;6.45;;;;;;;;;;5010555;28;20050;-59
2023/06/05 01:24:07;;;;;;;13.15;6.50;;;;;;;;;;4992188;28;20061;-59
2023/06/05 01:26:52;;;;;;;10.25;6.00;;;;;;;;;;5021827;28;20037;-60
2023/06/05 01:29:24;;;;;;;10.85;6.28;;;;;;;;;;4980022;28;20068;-60
2023/06/05 01:31:56;;;;;;;11.73;6.32;;;;;;;;;;5001609;28;20050;-60
2023/06/05 01:34:25;;;;;;;12.18;6.35;;;;;;;;;;5003752;28;20034;-60
2023/06/05 01:36:55;;;;;;;11.65;6.28;;;;;;;;;;4997595;28;20053;-60
2023/06/05 01:39:22;;;;;;;11.53;6.47;;;;;;;;;;5023201;28;20060;-59
2023/06/05 01:41:49;;;;;;;14.50;6.30;;;;;;;;;;5006823;28;20041;-60
2023/06/05 01:44:17;;;;;;;13.60;6.53;;;;;;;;;;5021533;28;20038;-59
2023/06/05 01:46:44;;;;;;;11.63;5.97;;;;;;;;;;4993341;28;20415;-60
2023/06/05 01:49:10;;;;;;;10.57;5.70;;;;;;;;;;5000403;28;20050;-61
2023/06/05 01:51:36;;;;;;;13.48;7.35;;;;;;;;;;5005370;28;20041;-59
2023/06/05 01:54:05;;;;;;;13.48;7.20;;;;;;;;;;5003526;28;20411;-60
2023/06/05 01:56:32;;;;;;;13.38;6.88;;;;;;;;;;5014553;28;20048;-60
2023/06/05 01:58:58;;;;;;;14.25;6.60;;;;;;;;;;5000347;28;20559;-60
2023/06/05 02:01:24;;;;;;;11.65;6.18;;;;;;;;;;4995363;28;20057;-60
2023/06/05 02:03:53;;;;;;;11.20;6.03;;;;;;;;;;5002980;28;20045;-60
2023/06/05 02:06:19;;;;;;;11.32;6.30;;;;;;;;;;5027763;28;20058;-58
2023/06/05 02:08:45;;;;;;;13.60;7.25;;;;;;;;;;5025133;28;20052;-60
2023/06/05 02:11:12;;;;;;;15.00;6.68;;;;;;;;;;5021747;28;20056;-61
2023/06/05 02:13:39;;;;;;;11.85;6.82;;;;;;;;;;5028274;28;20025;-60
2023/06/05 02:16:09;;;;;;;11.23;6.45;;;;;;;;;;5004006;28;20348;-58
2023/06/05 02:18:38;;;;;;;12.85;6.55;;;;;;;;;;5016179;28;20054;-59
2023/06/05 02:21:04;;;;;;;11.88;6.63;;;;;;;;;;5019495;28;20042;-59
2023/06/05 02:23:31;;;;;;;11.48;6.63;;;;;;;;;;5016839;28;20037;-57
2023/06/05 02:25:59;;;;;;;10.88;6.55;;;;;;;;;;4999353;28;20046;-60
2023/06/05 02:28:26;;;;;;;13.65;6.72;;;;;;;;;;4994740;28;20038;-61
2023/06/05 02:30:54;;;;;;;11.80;6.63;;;;;;;;;;5022004;28;20060;-61
2023/06/05 02:33:21;;;;;;;11.13;6.18;;;;;;;;;;5019494;28;20390;-60
2023/06/05 02:35:47;;;;;;;14.93;7.03;;;;;;;;;;5031262;28;20038;-60
2023/06/05 02:38:14;;;;;;;13.27;6.55;;;;;;;;;;5002986;28;20053;-60
2023/06/05 02:40:40;;;;;;;12.40;6.82;;;;;;;;;;5005313;28;20052;-59
2023/06/05 02:43:08;;;;;;;15.35;6.82;;;;;;;;;;5004144;28;20041;-60
2023/06/05 02:45:34;;;;;;;14.88;6.90;;;;;;;;;;5029443;28;20040;-60
2023/06/05 02:48:01;;;;;;;13.38;6.95;;;;;;;;;;5001175;28;20026;-59
2023/06/05 02:50:27;;;;;;;10.73;6.10;;;;;;;;;;5005822;28;20042;-59
2023/06/05 02:52:56;;;;;;;14.15;6.40;;;;;;;;;;5014235;28;20038;-59
2023/06/05 02:55:29;;;;;;;13.15;6.50;;;;;;;;;;4997429;28;20416;-59
2023/06/05 02:57:57;;;;;;;12.88;6.43;;;;;;;;;;4998873;28;20045;-60
2023/06/05 03:00:31;;;;;;;15.38;6.30;;;;;;;;;;5008218;28;20148;-60
2023/06/05 03:02:57;;;;;;;10.38;6.32;;;;;;;;;;4998449;28;20045;-58
2023/06/05 03:05:29;;;;;;;12.65;6.38;;;;;;;;;;4995710;28;20499;-59
2023/06/05 03:08:01;;;;;;;10.88;6.57;;;;;;;;;;5004353;28;20064;-60
2023/06/05 03:10:27;;;;;;;13.38;6.47;;;;;;;;;;5013159;28;20057;-60
2023/06/05 03:12:55;;;;;;;10.57;6.18;;;;;;;;;;5029204;28;20041;-59
2023/06/05 03:15:23;;;;;;;13.40;6.55;;;;;;;;;;5005785;28;20418;-60
2023/06/05 03:17:50;;;;;;;14.10;5.85;;;;;;;;;;5002511;28;20053;-59
2023/06/05 03:20:19;;;;;;;13.57;6.85;;;;;;;;;;5009016;28;20052;-59
2023/06/05 03:22:45;;;;;;;11.93;6.32;;;;;;;;;;5013866;28;20037;-59
2023/06/05 03:25:12;;;;;;;12.10;6.78;;;;;;;;;;5013357;28;20629;-59
2023/06/05 03:27:41;;;;;;;11.67;6.67;;;;;;;;;;4985466;28;20034;-59
2023/06/05 03:30:08;;;;;;;11.50;6.32;;;;;;;;;;5008180;28;20049;-58
2023/06/05 03:32:40;;;;;;;12.05;6.57;;;;;;;;;;5006156;28;20080;-59
2023/06/05 03:35:07;;;;;;;12.23;6.38;;;;;;;;;;5009586;28;20049;-60
2023/06/05 03:37:35;;;;;;;12.07;6.75;;;;;;;;;;4998248;28;20407;-58
2023/06/05 03:40:01;;;;;;;11.55;6.15;;;;;;;;;;4993001;28;20049;-59
2023/06/05 03:42:28;;;;;;;13.52;6.43;;;;;;;;;;5013482;28;20400;-59
2023/06/05 03:44:55;;;;;;;15.35;6.30;;;;;;;;;;5006372;28;20042;-59
2023/06/05 03:47:23;;;;;;;16.50;7.07;;;;;;;;;;5012830;28;20058;-59
2023/06/05 03:49:50;;;;;;;10.98;6.15;;;;;;;;;;4998268;28;20037;-58
2023/06/05 03:52:23;;;;;;;11.70;6.30;;;;;;;;;;5002040;28;20029;-59
2023/06/05 03:54:53;;;;;;;13.52;6.38;;;;;;;;;;4997627;28;20522;-60
2023/06/05 03:57:22;;;;;;;13.85;5.72;;;;;;;;;;4992932;28;20108;-59
2023/06/05 03:59:48;;;;;;;11.90;6.00;;;;;;;;;;5009899;28;20033;-58
2023/06/05 04:02:14;;;;;;;12.57;7.18;;;;;;;;;;5030439;28;20037;-58
2023/06/05 04:04:40;;;;;;;11.40;5.57;;;;;;;;;;5001454;28;20056;-59
2023/06/05 04:07:07;;;;;;;14.52;7.20;;;;;;;;;;4999600;28;20065;-58
2023/06/05 04:09:33;;;;;;;17.10;7.00;;;;;;;;;;5010799;28;20533;-60
2023/06/05 04:11:59;;;;;;;12.68;6.20;;;;;;;;;;4992354;28;20045;-59
2023/06/05 04:14:27;;;;;;;12.60;6.05;;;;;;;;;;4984064;28;20037;-59
2023/06/05 04:16:53;;;;;;;15.50;6.38;;;;;;;;;;5002312;28;20030;-58
2023/06/05 04:19:22;;;;;;;14.52;6.97;;;;;;;;;;5003571;28;20041;-59
2023/06/05 04:21:52;;;;;;;11.32;6.32;;;;;;;;;;5003342;28;20048;-59
2023/06/05 04:24:18;;;;;;;12.43;6.00;;;;;;;;;;5004280;28;20053;-59
2023/06/05 04:26:45;;;;;;;16.88;7.43;;;;;;;;;;4992112;28;20049;-59
2023/06/05 04:29:15;;;;;;;14.15;7.32;;;;;;;;;;5017021;28;20050;-59
2023/06/05 04:31:43;;;;;;;14.77;7.13;;;;;;;;;;5007001;28;20044;-59
2023/06/05 04:34:10;;;;;;;13.23;6.70;;;;;;;;;;5025860;28;20049;-59
2023/06/05 04:36:37;;;;;;;10.13;6.45;;;;;;;;;;4996283;28;20519;-60
2023/06/05 04:39:04;;;;;;;11.77;6.07;;;;;;;;;;5012703;28;20038;-59
2023/06/05 04:41:32;;;;;;;13.30;6.85;;;;;;;;;;4995679;28;20034;-59
2023/06/05 04:44:02;;;;;;;12.50;6.30;;;;;;;;;;5018565;28;20049;-61
2023/06/05 04:46:30;;;;;;;12.13;6.93;;;;;;;;;;5011390;28;20521;-60
2023/06/05 04:48:57;;;;;;;12.45;6.80;;;;;;;;;;4999724;28;20037;-60
2023/06/05 04:51:24;;;;;;;13.50;7.10;;;;;;;;;;4993239;28;20050;-59
2023/06/05 04:53:52;;;;;;;12.38;6.55;;;;;;;;;;5003372;28;20038;-58
2023/06/05 04:56:22;;;;;;;12.88;7.10;;;;;;;;;;4993163;28;20037;-59
2023/06/05 04:58:50;;;;;;;14.02;6.57;;;;;;;;;;5007280;28;20434;-59
2023/06/05 05:01:17;;;;;;;12.10;7.00;;;;;;;;;;5025734;28;20033;-58
2023/06/05 05:03:45;;;;;;;11.82;6.78;;;;;;;;;;5003630;28;20042;-58
2023/06/05 05:06:14;;;;;;;18.70;7.28;;;;;;;;;;5005323;28;20044;-59
2023/06/05 05:08:41;;;;;;;14.68;8.43;;;;;;;;;;4995092;28;20045;-59
2023/06/05 05:11:08;;;;;;;14.38;7.50;;;;;;;;;;4992655;28;20034;-58
2023/06/05 05:13:34;;;;;;;14.82;7.40;;;;;;;;;;4999344;28;20037;-60
2023/06/05 05:16:00;;;;;;;15.43;7.38;;;;;;;;;;5009319;28;20037;-60
2023/06/05 05:18:28;;;;;;;19.95;8.27;;;;;;;;;;5014361;28;20068;-59
2023/06/05 05:20:54;;;;;;;16.83;8.82;;;;;;;;;;4996360;28;20407;-59
2023/06/05 05:23:21;;;;;;;22.60;9.57;;;;;;;;;;4992649;28;20448;-59
2023/06/05 05:25:47;;;;;;;21.80;10.02;;;;;;;;;;4997191;28;20278;-59
2023/06/05 05:28:13;;;;;;;17.40;9.55;;;;;;;;;;5007803;28;20033;-58
2023/06/05 05:30:40;;;;;;;17.98;9.80;;;;;;;;;;4995036;28;20045;-59
2023/06/05 05:33:07;;;;;;;20.05;9.30;;;;;;;;;;4984816;28;20040;-59
2023/06/05 05:35:33;;;;;;;21.27;9.48;;;;;;;;;;5009768;28;20060;-60
2023/06/05 05:37:59;;;;;;;19.60;8.95;;;;;;;;;;4998072;28;20042;-59
2023/06/05 05:40:25;;;;;;;16.90;9.27;;;;;;;;;;5011836;28;20483;-58
2023/06/05 05:42:51;;;;;;;24.30;9.77;;;;;;;;;;4996574;28;20118;-59
2023/06/05 05:45:18;;;;;;;19.23;9.85;;;;;;;;;;5013009;28;20049;-60
2023/06/05 05:47:44;;;;;;;22.08;10.00;;;;;;;;;;5033007;28;20029;-60
2023/06/05 05:50:10;;;;;;;20.23;10.30;;;;;;;;;;5028383;28;20053;-59
2023/06/05 05:52:36;;;;;;;21.95;9.82;;;;;;;;;;5029425;28;20541;-59
2023/06/05 05:55:03;;;;;;;25.52;12.07;;;;;;;;;;5033213;28;20037;-59
2023/06/05 05:57:30;;;;;;;22.80;11.10;;;;;;;;;;5017372;28;20060;-59
2023/06/05 05:59:56;;;;;;;27.35;12.02;;;;;;;;;;5031490;28;20108;-58
2023/06/05 06:02:22;;;;;;;21.38;11.25;;;;;;;;;;5031699;28;20042;-58
2023/06/05 06:04:49;;;;;;;27.98;11.27;;;;;;;;;;5032888;28;20058;-58
2023/06/05 06:07:15;;;;;;;27.30;11.88;;;;;;;;;;5032623;28;20029;-59
2023/06/05 06:09:42;;;;;;;22.25;11.00;;;;;;;;;;5009002;28;20414;-58
2023/06/05 06:12:08;;;;;;;20.80;10.55;;;;;;;;;;5028631;28;20411;-58
2023/06/05 06:14:34;;;;;;;19.67;9.68;;;;;;;;;;5027133;28;20033;-58
2023/06/05 06:17:02;;;;;;;27.75;9.90;;;;;;;;;;5019546;28;20026;-58
2023/06/05 06:19:28;;;;;;;20.50;10.88;;;;;;;;;;5029395;28;20049;-57
2023/06/05 06:21:55;;;;;;;23.20;11.80;;;;;;;;;;5027730;28;20026;-58
2023/06/05 06:24:22;;;;;;;21.58;11.32;;;;;;;;;;5000377;28;20034;-60
2023/06/05 06:26:49;;;;;;;22.98;11.30;;;;;;;;;;5025525;28;20037;-58
2023/06/05 06:29:18;;;;;;;26.70;10.95;;;;;;;;;;5031026;28;20430;-60
2023/06/05 06:31:44;;;;;;;26.08;11.88;;;;;;;;;;5032050;28;20052;-59
2023/06/05 06:34:11;;;;;;;25.90;12.07;;;;;;;;;;5015136;28;20037;-59
2023/06/05 06:36:43;;;;;;;28.52;12.52;;;;;;;;;;5003996;28;20078;-60
2023/06/05 06:39:10;;;;;;;25.25;11.02;;;;;;;;;;5012120;28;20057;-59
2023/06/05 06:41:37;;;;;;;22.80;10.98;;;;;;;;;;5031996;28;20048;-59
2023/06/05 06:44:03;;;;;;;23.20;11.07;;;;;;;;;;5021535;28;20403;-58
2023/06/05 06:46:30;;;;;;;22.88;10.95;;;;;;;;;;5027352;28;20044;-60
2023/06/05 06:48:57;;;;;;;25.35;11.35;;;;;;;;;;5029647;28;20529;-59
2023/06/05 06:51:24;;;;;;;25.08;11.45;;;;;;;;;;5016282;28;20499;-60
2023/06/05 06:53:50;;;;;;;24.65;11.48;;;;;;;;;;5016649;28;20057;-59
2023/06/05 06:56:17;;;;;;;22.35;11.50;;;;;;;;;;5024135;28;20054;-59
2023/06/05 06:58:45;;;;;;;21.02;11.60;;;;;;;;;;5030526;28;20053;-59
2023/06/05 07:01:12;;;;;;;22.42;10.82;;;;;;;;;;5030415;28;20053;-59
2023/06/05 07:03:40;;;;;;;32.17;11.20;;;;;;;;;;5031313;28;20550;-58
2023/06/05 07:06:06;;;;;;;22.42;11.60;;;;;;;;;;5030273;28;20057;-59
2023/06/05 07:08:32;;;;;;;22.70;10.82;;;;;;;;;;5030898;28;20510;-59
2023/06/05 07:10:59;;;;;;;26.90;11.05;;;;;;;;;;5015762;28;20427;-59
2023/06/05 07:13:25;;;;;;;24.33;11.60;;;;;;;;;;5028545;28;20029;-60
2023/06/05 07:15:51;;;;;;;24.42;11.40;;;;;;;;;;5018143;28;20041;-59
2023/06/05 07:18:19;;;;;;;22.67;11.13;;;;;;;;;;5022969;28;20060;-59
2023/06/05 07:20:45;;;;;;;36.25;11.57;;;;;;;;;;4999155;28;20053;-60
2023/06/05 07:23:11;;;;;;;26.27;12.57;;;;;;;;;;5011849;28;20034;-58
2023/06/05 07:25:37;;;;;;;23.48;10.95;;;;;;;;;;4998176;28;20046;-58
2023/06/05 07:28:11;;;;;;;26.25;11.90;;;;;;;;;;5025491;28;20049;-59
2023/06/05 07:30:37;;;;;;;28.27;12.38;;;;;;;;;;5011584;28;20487;-59
2023/06/05 07:33:03;;;;;;;21.88;11.50;;;;;;;;;;5019359;28;20403;-59
2023/06/05 07:35:30;;;;;;;26.73;11.25;;;;;;;;;;5029543;28;20037;-59
2023/06/05 07:37:56;;;;;;;31.00;11.65;;;;;;;;;;4989360;28;20042;-58
2023/06/05 07:40:22;;;;;;;28.80;11.85;;;;;;;;;;5012749;28;20041;-59
2023/06/05 07:42:48;;;;;;;25.80;11.90;;;;;;;;;;4999275;28;20042;-58
2023/06/05 07:45:14;;;;;;;22.70;11.45;;;;;;;;;;5021726;28;20048;-59
2023/06/05 07:47:40;;;;;;;21.90;11.20;;;;;;;;;;5029912;28;20041;-59
2023/06/05 07:50:07;;;;;;;23.38;11.35;;;;;;;;;;5030590;28;20034;-59
2023/06/05 07:52:33;;;;;;;23.05;12.77;;;;;;;;;;5030192;28;20049;-58
2023/06/05 07:54:59;;;;;;;22.77;12.32;;;;;;;;;;5030277;28;20045;-59
2023/06/05 07:57:27;;;;;;;30.50;11.98;;;;;;;;;;5029573;28;20045;-59
2023/06/05 07:59:54;;;;;;;24.67;12.50;;;;;;;;;;5014423;28;20499;-58
2023/06/05 08:02:21;;;;;;;28.42;12.80;;;;;;;;;;5030341;28;20529;-58
2023/06/05 08:04:47;;;;;;;21.60;12.70;;;;;;;;;;5030871;28;20487;-59
2023/06/05 08:07:13;;;;;;;28.88;13.55;;;;;;;;;;5029597;28;20053;-59
2023/06/05 08:09:40;;;;;;;28.38;13.35;;;;;;;;;;5015922;28;20050;-59
2023/06/05 08:12:06;;;;;;;30.48;14.80;;;;;;;;;;5015678;28;20388;-58
2023/06/05 08:14:34;;;;;;;29.42;13.50;;;;;;;;;;5026769;28;20026;-59
2023/06/05 08:17:00;;;;;;;27.48;15.25;;;;;;;;;;5023515;28;20030;-59
2023/06/05 08:19:26;;;;;;;29.10;14.65;;;;;;;;;;5027364;28;20041;-59
2023/06/05 08:21:56;;;;;;;27.35;13.55;;;;;;;;;;4997057;28;20042;-59
2023/06/05 08:24:23;;;;;;;29.42;14.27;;;;;;;;;;5030855;28;20413;-58
2023/06/05 08:26:49;;;;;;;30.25;13.52;;;;;;;;;;5016580;28;20056;-62
2023/06/05 08:29:15;;;;;;;31.58;14.95;;;;;;;;;;5010653;28;20034;-59
2023/06/05 08:31:41;;;;;;;26.40;14.05;;;;;;;;;;5028477;28;20065;-60
2023/06/05 08:34:07;;;;;;;29.52;15.73;;;;;;;;;;5004380;28;20026;-58
2023/06/05 08:36:35;;;;;;;31.17;14.23;;;;;;;;;;5019846;28;20033;-59
2023/06/05 08:39:02;;;;;;;33.05;15.20;;;;;;;;;;5006724;28;20057;-59
2023/06/05 08:41:30;;;;;;;37.30;14.55;;;;;;;;;;5029904;28;20037;-59
2023/06/05 08:43:57;;;;;;;31.05;14.82;;;;;;;;;;5019033;28;20044;-58
2023/06/05 08:46:33;;;;;;;32.22;16.52;;;;;;;;;;5027430;28;20036;-58
2023/06/05 08:49:07;;;;;;;33.60;15.70;;;;;;;;;;5029043;28;20399;-59
2023/06/05 08:51:33;;;;;;;31.05;15.57;;;;;;;;;;5029220;28;20053;-59
2023/06/05 08:54:09;;;;;;;29.67;15.55;;;;;;;;;;5029413;28;20129;-59
2023/06/05 08:56:36;;;;;;;31.95;15.35;;;;;;;;;;5030134;28;20045;-58
2023/06/05 08:59:04;;;;;;;32.97;14.43;;;;;;;;;;5028643;28;20053;-59
2023/06/05 09:01:32;;;;;;;29.83;14.52;;;;;;;;;;5028623;28;20060;-59
2023/06/05 09:03:58;;;;;;;29.30;14.45;;;;;;;;;;5029323;28;20049;-60
2023/06/05 09:06:24;;;;;;;33.85;14.38;;;;;;;;;;5020963;28;20037;-59
2023/06/05 09:08:51;;;;;;;23.58;13.32;;;;;;;;;;5019086;28;20671;-59
2023/06/05 09:11:25;;;;;;;26.83;14.65;;;;;;;;;;5013644;28;20037;-59
2023/06/05 09:13:51;;;;;;;21.48;13.63;;;;;;;;;;5020496;28;20064;-59
2023/06/05 09:16:22;;;;;;;31.42;14.18;;;;;;;;;;5003938;28;20041;-59
2023/06/05 09:18:56;;;;;;;22.75;13.23;;;;;;;;;;5012920;28;20064;-60
2023/06/05 09:21:28;;;;;;;22.80;12.20;;;;;;;;;;5028822;28;20053;-59
2023/06/05 09:24:09;;;;;;;20.35;12.07;;;;;;;;;;5028321;28;20049;-60
2023/06/05 09:26:57;;;;;;;21.58;12.02;;;;;;;;;;5029392;28;20042;-60
2023/06/05 09:29:25;;;;;;;16.00;11.32;;;;;;;;;;5002929;28;20050;-60
2023/06/05 09:31:53;;;;;;;22.30;11.73;;;;;;;;;;5020892;28;20045;-60
2023/06/05 09:34:32;;;;;;;17.80;12.30;;;;;;;;;;5031711;28;20041;-60
2023/06/05 09:37:00;;;;;;;15.68;10.93;;;;;;;;;;5020960;28;20514;-60
2023/06/05 09:39:28;;;;;;;15.40;10.48;;;;;;;;;;5032019;28;20064;-60
2023/06/05 09:41:56;;;;;;;14.85;10.77;;;;;;;;;;5032586;28;20033;-60
2023/06/05 09:44:28;;;;;;;17.80;10.80;;;;;;;;;;5025666;28;20033;-60
2023/06/05 09:47:17;;;;;;;16.83;10.40;;;;;;;;;;5024797;28;20030;-60
2023/06/05 09:49:43;;;;;;;14.40;10.45;;;;;;;;;;5032098;28;20394;-59
2023/06/05 09:52:12;;;;;;;12.13;9.27;;;;;;;;;;5017126;28;20044;-60
2023/06/05 09:54:41;;;;;;;12.68;9.32;;;;;;;;;;5032368;28;20065;-60
2023/06/05 09:57:09;;;;;;;13.43;8.82;;;;;;;;;;5032197;28;20049;-60
2023/06/05 09:59:51;;;;;;;13.70;9.05;;;;;;;;;;5032990;28;20037;-60
2023/06/05 10:02:19;;;;;;;13.18;8.98;;;;;;;;;;5013347;28;20041;-60
2023/06/05 10:04:48;;;;;;;13.82;9.38;;;;;;;;;;5012827;28;20614;-59
2023/06/05 10:07:15;;;;;;;10.80;9.05;;;;;;;;;;5005162;28;20052;-61
2023/06/05 10:09:42;;;;;;;12.60;8.85;;;;;;;;;;5014849;28;20034;-61
2023/06/05 10:12:09;;;;;;;13.27;8.65;;;;;;;;;;5030875;28;20430;-61
2023/06/05 10:14:36;;;;;;;14.25;8.15;;;;;;;;;;5001419;28;20056;-61
2023/06/05 10:17:02;;;;;;;11.52;7.65;;;;;;;;;;5023286;28;20046;-61
2023/06/05 10:19:30;;;;;;;14.65;8.52;;;;;;;;;;5032331;28;20053;-60
2023/06/05 10:21:56;;;;;;;14.70;9.23;;;;;;;;;;5031000;28;20048;-61
2023/06/05 10:24:26;;;;;;;13.60;9.50;;;;;;;;;;5018114;28;20046;-60
2023/06/05 10:27:11;;;;;;;12.27;8.10;;;;;;;;;;5024416;28;20427;-60
2023/06/05 10:30:06;;;;;;;10.20;8.02;;;;;;;;;;5012805;28;20037;-57
2023/06/05 10:33:10;;;;;;;14.73;8.70;;;;;;;;;;5029196;28;20037;-62
2023/06/05 10:35:49;;;;;;;10.27;7.53;;;;;;;;;;5011288;28;20045;-62
2023/06/05 10:38:21;;;;;;;13.60;7.68;;;;;;;;;;5025858;28;20033;-61
2023/06/05 10:40:55;;;;;;;11.52;7.72;;;;;;;;;;5015883;28;20777;-62
2023/06/05 10:43:30;;;;;;;11.95;7.45;;;;;;;;;;5023389;28;20045;-61
2023/06/05 10:45:58;;;;;;;10.07;7.72;;;;;;;;;;5026610;28;20068;-61
2023/06/05 10:49:02;;;;;;;11.07;8.20;;;;;;;;;;5024398;28;20419;-61
2023/06/05 10:51:45;;;;;;;10.73;8.18;;;;;;;;;;5018124;28;20033;-61
2023/06/05 10:54:16;;;;;;;10.40;7.22;;;;;;;;;;5032224;28;20056;-61
2023/06/05 10:56:59;;;;;;;11.45;7.90;;;;;;;;;;4998085;28;20037;-60
2023/06/05 10:59:33;;;;;;;10.15;7.63;;;;;;;;;;5001160;28;20033;-61
2023/06/05 11:04:47;;;;;;;9.00;7.20;;;;;;;;;;5031696;28;20045;-62
2023/06/05 11:07:24;;;;;;;9.10;6.93;;;;;;;;;;5030477;28;20056;-62
2023/06/05 11:10:05;;;;;;;10.32;7.70;;;;;;;;;;5030605;28;20411;-58
2023/06/05 11:12:35;;;;;;;11.18;7.32;;;;;;;;;;5029107;28;20097;-62
2023/06/05 11:15:02;;;;;;;13.35;7.32;;;;;;;;;;5022218;28;20029;-62
2023/06/05 11:17:29;;;;;;;10.15;7.03;;;;;;;;;;5028535;28;20044;-62
2023/06/05 11:19:56;;;;;;;10.13;7.38;;;;;;;;;;5025608;28;20046;-62
2023/06/05 11:22:23;;;;;;;11.88;7.18;;;;;;;;;;5011330;28;20517;-62
2023/06/05 11:25:14;;;;;;;9.02;6.80;;;;;;;;;;5026381;28;20042;-57
2023/06/05 11:27:45;;;;;;;8.82;7.32;;;;;;;;;;5022766;28;20056;-62
2023/06/05 11:30:12;;;;;;;12.63;7.18;;;;;;;;;;5030713;28;20057;-62
2023/06/05 11:32:38;;;;;;;10.10;7.10;;;;;;;;;;5030438;28;20045;-62
2023/06/05 11:35:05;;;;;;;8.00;6.70;;;;;;;;;;5031002;28;20060;-62
2023/06/05 11:37:34;;;;;;;10.93;7.28;;;;;;;;;;5008382;28;20048;-55
2023/06/05 11:40:08;;;;;;;11.85;6.95;;;;;;;;;;5030683;28;20045;-61
2023/06/05 11:42:38;;;;;;;9.65;6.90;;;;;;;;;;5030292;28;20048;-59
2023/06/05 11:45:14;;;;;;;10.25;7.22;;;;;;;;;;5024963;28;20369;-61
2023/06/05 11:47:41;;;;;;;8.35;7.00;;;;;;;;;;5029979;28;20391;-62
2023/06/05 11:50:14;;;;;;;8.82;7.03;;;;;;;;;;5029832;28;20395;-62
2023/06/05 11:52:41;;;;;;;8.13;6.40;;;;;;;;;;5029124;28;20045;-62
2023/06/05 11:55:22;;;;;;;9.32;6.10;;;;;;;;;;5018934;28;20040;-63
2023/06/05 11:57:49;;;;;;;8.25;6.38;;;;;;;;;;5028208;28;20037;-62
2023/06/05 12:00:22;;;;;;;11.23;6.82;;;;;;;;;;5025154;28;20040;-63
2023/06/05 12:02:49;;;;;;;9.25;6.78;;;;;;;;;;5009456;28;20053;-58
2023/06/05 12:05:15;;;;;;;10.52;6.88;;;;;;;;;;5010775;28;20056;-62
2023/06/05 12:07:43;;;;;;;13.00;6.68;;;;;;;;;;5028407;28;20052;-62
2023/06/05 12:10:10;;;;;;;9.07;6.93;;;;;;;;;;5001870;28;20498;-62
2023/06/05 12:12:53;;;;;;;10.82;6.80;;;;;;;;;;5030670;28;20085;-62
2023/06/05 12:15:24;;;;;;;10.00;6.85;;;;;;;;;;5002912;28;20030;-61
2023/06/05 12:17:56;;;;;;;11.20;6.80;;;;;;;;;;5022510;28;20041;-59
2023/06/05 12:20:22;;;;;;;12.32;6.70;;;;;;;;;;5020154;28;20044;-61
2023/06/05 12:22:53;;;;;;;9.57;6.43;;;;;;;;;;5000237;28;20061;-61
2023/06/05 12:25:20;;;;;;;10.27;6.95;;;;;;;;;;5028889;28;20049;-61
2023/06/05 12:27:48;;;;;;;9.90;6.90;;;;;;;;;;5028851;28;20049;-61
2023/06/05 12:30:18;;;;;;;10.05;6.47;;;;;;;;;;5029416;28;20049;-61
2023/06/05 12:32:45;;;;;;;9.55;6.40;;;;;;;;;;5013203;28;20049;-61
2023/06/05 12:35:24;;;;;;;9.88;6.75;;;;;;;;;;5000305;28;20546;-55
2023/06/05 12:37:51;;;;;;;13.10;7.57;;;;;;;;;;4992312;28;20054;-61
2023/06/05 12:40:20;;;;;;;12.45;6.90;;;;;;;;;;5003889;28;20060;-61
2023/06/05 12:42:48;;;;;;;8.82;6.45;;;;;;;;;;5023871;28;20404;-61
2023/06/05 12:45:15;;;;;;;9.10;6.28;;;;;;;;;;5025665;28;20057;-61
2023/06/05 12:47:42;;;;;;;10.43;6.82;;;;;;;;;;5008229;28;20064;-62
2023/06/05 12:50:11;;;;;;;10.43;6.50;;;;;;;;;;5020149;28;20415;-62
2023/06/05 12:52:38;;;;;;;9.48;6.38;;;;;;;;;;5021709;28;20073;-62
2023/06/05 12:55:05;;;;;;;9.60;6.72;;;;;;;;;;5030017;28;20040;-63
2023/06/05 12:57:34;;;;;;;11.38;6.93;;;;;;;;;;5029303;28;20937;-62
2023/06/05 13:00:12;;;;;;;10.30;6.55;;;;;;;;;;5017522;28;20053;-62
2023/06/05 13:02:46;;;;;;;10.23;6.97;;;;;;;;;;5026946;28;20037;-63
2023/06/05 13:05:12;;;;;;;9.15;6.65;;;;;;;;;;5011756;28;20053;-62
2023/06/05 13:07:39;;;;;;;11.50;7.28;;;;;;;;;;5011628;28;20454;-61
2023/06/05 13:10:06;;;;;;;9.38;6.60;;;;;;;;;;5016120;28;20038;-61
2023/06/05 13:12:32;;;;;;;10.33;6.53;;;;;;;;;;5008748;28;20542;-61
2023/06/05 13:15:15;;;;;;;10.63;7.13;;;;;;;;;;5014678;28;20053;-61
2023/06/05 13:17:41;;;;;;;12.00;6.88;;;;;;;;;;5024212;28;20040;-61
2023/06/05 13:20:10;;;;;;;10.48;6.95;;;;;;;;;;5029567;28;20044;-61
2023/06/05 13:22:40;;;;;;;8.20;6.28;;;;;;;;;;5014286;28;20058;-62
2023/06/05 13:25:08;;;;;;;9.30;7.07;;;;;;;;;;5017988;28;20029;-62
2023/06/05 13:27:35;;;;;;;11.60;7.38;;;;;;;;;;5011163;28;20045;-62
2023/06/05 13:30:05;;;;;;;10.43;7.18;;;;;;;;;;5027581;28;20053;-62
2023/06/05 13:32:33;;;;;;;11.27;7.70;;;;;;;;;;5007086;28;20037;-62
2023/06/05 13:35:00;;;;;;;9.90;7.10;;;;;;;;;;5029725;28;20483;-62
2023/06/05 13:37:26;;;;;;;9.75;6.53;;;;;;;;;;5029013;28;20045;-62
2023/06/05 13:39:52;;;;;;;8.50;6.43;;;;;;;;;;5029215;28;20411;-62
2023/06/05 13:42:18;;;;;;;12.38;7.03;;;;;;;;;;5015300;28;20399;-62
2023/06/05 13:44:44;;;;;;;12.23;6.97;;;;;;;;;;5020366;28;20511;-62
2023/06/05 13:47:10;;;;;;;10.60;6.65;;;;;;;;;;5028078;28;20037;-62
2023/06/05 13:49:36;;;;;;;10.93;6.78;;;;;;;;;;5029181;28;20499;-62
2023/06/05 13:52:03;;;;;;;11.40;7.10;;;;;;;;;;5026253;28;20057;-62
2023/06/05 13:54:29;;;;;;;8.50;6.88;;;;;;;;;;5016842;28;20041;-62
2023/06/05 13:56:55;;;;;;;10.38;7.50;;;;;;;;;;5000033;28;20046;-62
2023/06/05 13:59:21;;;;;;;9.75;6.63;;;;;;;;;;5008270;28;20053;-61
2023/06/05 14:01:47;;;;;;;11.07;7.43;;;;;;;;;;5011732;28;20044;-62
2023/06/05 14:04:13;;;;;;;11.60;7.30;;;;;;;;;;5023489;28;20396;-61
2023/06/05 14:06:41;;;;;;;10.30;7.00;;;;;;;;;;5019712;28;20040;-62
2023/06/05 14:09:08;;;;;;;8.43;6.70;;;;;;;;;;5027813;28;20053;-60
2023/06/05 14:11:34;;;;;;;12.05;7.90;;;;;;;;;;5029278;28;20048;-61
2023/06/05 14:14:02;;;;;;;11.10;6.85;;;;;;;;;;5028279;28;20423;-62
2023/06/05 14:16:28;;;;;;;10.35;7.05;;;;;;;;;;5021051;28;20395;-62
2023/06/05 14:18:54;;;;;;;11.55;7.32;;;;;;;;;;5028777;28;20526;-62
2023/06/05 14:21:20;;;;;;;11.45;7.97;;;;;;;;;;5031627;28;20052;-61
2023/06/05 14:23:46;;;;;;;10.85;7.18;;;;;;;;;;5026820;28;20038;-62
2023/06/05 14:26:12;;;;;;;9.10;7.07;;;;;;;;;;4999493;28;20057;-61
2023/06/05 14:28:38;;;;;;;11.80;7.40;;;;;;;;;;5020827;28;20045;-62
2023/06/05 14:31:05;;;;;;;10.40;7.25;;;;;;;;;;5027991;28;20056;-62
2023/06/05 14:33:31;;;;;;;11.38;7.10;;;;;;;;;;4999777;28;20522;-57
2023/06/05 14:35:58;;;;;;;14.85;7.30;;;;;;;;;;5032482;28;20045;-62
2023/06/05 14:38:25;;;;;;;9.10;6.80;;;;;;;;;;5032084;28;20041;-61